createdAt,value
2019-04-27T00:04:40.115Z,7.00
2019-04-27T00:09:53.645Z,7.65
2019-04-27T00:15:03.186Z,7.72
2019-04-27T00:20:39.126Z,7.37
2019-04-27T00:25:43.869Z,7.27
2019-04-27T00:30:47.922Z,7.37
2019-04-27T00:36:00.298Z,6.75
2019-04-27T00:41:08.356Z,7.00
2019-04-27T00:46:13.799Z,8.78
2019-04-27T00:51:17.409Z,7.17
2019-04-27T00:56:43.134Z,7.50
2019-04-27T01:01:57.575Z,6.70
2019-04-27T01:07:02.831Z,7.97
2019-04-27T01:12:07.904Z,7.15
2019-04-27T01:17:11.362Z,7.45
2019-04-27T01:22:15.812Z,7.50
2019-04-27T01:27:39.365Z,7.60
2019-04-27T01:32:44.060Z,7.67
2019-04-27T01:37:48.736Z,7.12
2019-04-27T01:42:52.323Z,7.33
2019-04-27T01:47:55.723Z,6.80
2019-04-27T01:52:59.121Z,7.83
2019-04-27T01:58:03.064Z,7.92
2019-04-27T02:03:08.767Z,7.08
2019-04-27T02:08:12.425Z,6.70
2019-04-27T02:13:15.742Z,7.25
2019-04-27T02:18:19.585Z,6.47
2019-04-27T02:23:23.411Z,5.80
2019-04-27T02:28:47.226Z,3.35
2019-04-27T02:33:59.601Z,5.10
2019-04-27T02:39:04.547Z,5.30
2019-04-27T02:44:16.297Z,4.65
2019-04-27T02:49:20.228Z,5.35
2019-04-27T02:54:24.122Z,6.30
2019-04-27T02:59:30.246Z,6.10
2019-04-27T03:04:34.051Z,6.15
2019-04-27T03:09:39.510Z,5.03
2019-04-27T03:14:57.078Z,5.47
2019-04-27T03:20:11.610Z,6.87
2019-04-27T03:25:34.890Z,6.20
2019-04-27T03:30:42.557Z,7.65
2019-04-27T03:35:45.951Z,7.45
2019-04-27T03:40:52.892Z,7.33
2019-04-27T03:45:55.470Z,9.03
2019-04-27T03:51:23.219Z,10.78
2019-04-27T03:56:30.365Z,9.35
2019-04-27T04:01:34.844Z,9.20
2019-04-27T04:06:40.018Z,11.03
2019-04-27T04:12:05.378Z,10.40
2019-04-27T04:17:12.982Z,10.28
2019-04-27T04:27:20.330Z,7.65
2019-04-27T04:32:24.890Z,11.20
2019-04-27T04:37:29.590Z,6.95
2019-04-27T04:42:39.879Z,5.50
2019-04-27T04:47:56.450Z,11.95
2019-04-27T04:53:00.105Z,10.93
2019-04-27T04:58:03.830Z,9.03
2019-04-27T05:03:09.473Z,12.37
2019-04-27T05:08:13.012Z,12.63
2019-04-27T05:13:16.680Z,10.50
2019-04-27T05:18:20.350Z,11.22
2019-04-27T05:23:23.939Z,14.65
2019-04-27T05:28:27.229Z,13.93
2019-04-27T05:33:31.802Z,11.75
2019-04-27T05:38:35.142Z,16.02
2019-04-27T05:43:45.222Z,16.25
2019-04-27T05:48:49.834Z,17.25
2019-04-27T05:53:54.748Z,12.85
2019-04-27T05:59:00.254Z,11.63
2019-04-27T06:04:03.616Z,14.87
2019-04-27T06:09:09.354Z,15.72
2019-04-27T06:14:13.623Z,8.23
2019-04-27T06:19:19.350Z,15.50
2019-04-27T06:24:22.894Z,15.93
2019-04-27T06:29:26.221Z,16.62
2019-04-27T06:34:30.995Z,17.32
2019-04-27T06:39:34.475Z,17.80
2019-04-27T06:44:39.492Z,14.38
2019-04-27T06:49:43.320Z,15.58
2019-04-27T06:54:48.575Z,10.43
2019-04-27T06:59:52.031Z,18.77
2019-04-27T07:04:55.482Z,12.20
2019-04-27T07:09:59.427Z,14.05
2019-04-27T07:15:03.163Z,10.90
2019-04-27T07:20:09.061Z,13.75
2019-04-27T07:25:12.656Z,11.73
2019-04-27T07:30:18.793Z,10.90
2019-04-27T07:35:22.932Z,9.53
2019-04-27T07:40:28.929Z,9.45
2019-04-27T07:45:35.650Z,8.95
2019-04-27T07:50:39.759Z,12.78
2019-04-27T07:55:43.108Z,14.83
2019-04-27T08:00:46.405Z,12.73
2019-04-27T08:05:50.134Z,11.10
2019-04-27T08:10:53.469Z,12.73
2019-04-27T08:15:56.910Z,9.93
2019-04-27T08:21:00.645Z,9.73
2019-04-27T08:26:08.830Z,12.00
2019-04-27T08:31:18.665Z,14.25
2019-04-27T08:36:21.993Z,13.75
2019-04-27T08:41:25.384Z,12.73
2019-04-27T08:46:29.219Z,14.05
2019-04-27T08:51:33.334Z,11.20
2019-04-27T08:56:36.707Z,9.20
2019-04-27T09:01:40.797Z,10.00
2019-04-27T09:06:46.799Z,13.22
2019-04-27T09:11:59.705Z,13.38
2019-04-27T09:17:15.991Z,11.15
2019-04-27T09:22:20.778Z,14.13
2019-04-27T09:27:24.655Z,14.00
2019-04-27T09:32:28.964Z,12.70
2019-04-27T09:37:32.477Z,8.45
2019-04-27T09:42:36.239Z,15.23
2019-04-27T09:47:41.416Z,15.50
2019-04-27T09:52:45.943Z,13.80
2019-04-27T09:57:49.653Z,19.50
2019-04-27T10:02:53.170Z,16.37
2019-04-27T10:07:57.037Z,9.93
2019-04-27T10:13:00.880Z,18.32
2019-04-27T10:18:06.076Z,19.45
2019-04-27T10:23:12.200Z,9.88
2019-04-27T10:28:15.901Z,21.75
2019-04-27T10:33:20.668Z,18.90
2019-04-27T10:38:25.943Z,20.72
2019-04-27T10:43:30.815Z,21.23
2019-04-27T10:48:34.302Z,18.90
2019-04-27T10:53:39.051Z,21.68
2019-04-27T10:58:42.524Z,24.80
2019-04-27T11:04:08.450Z,24.05
2019-04-27T11:09:12.744Z,24.23
2019-04-27T11:14:16.118Z,25.12
2019-04-27T11:19:19.880Z,24.32
2019-04-27T11:24:26.075Z,25.60
2019-04-27T11:29:29.526Z,27.03
2019-04-27T11:35:02.605Z,24.52
2019-04-27T11:40:07.811Z,24.70
2019-04-27T11:45:12.609Z,24.98
2019-04-27T11:50:18.035Z,24.12
2019-04-27T11:55:21.497Z,22.05
2019-04-27T12:00:27.827Z,17.57
2019-04-27T12:05:31.823Z,21.02
2019-04-27T12:10:36.295Z,19.50
2019-04-27T12:15:39.887Z,21.97
2019-04-27T12:20:45.615Z,23.95
2019-04-27T12:25:49.250Z,24.00
2019-04-27T12:30:59.680Z,23.70
2019-04-27T12:36:03.331Z,17.65
2019-04-27T12:41:06.934Z,17.37
2019-04-27T12:46:11.101Z,18.05
2019-04-27T12:51:14.715Z,20.65
2019-04-27T12:56:29.987Z,22.00
2019-04-27T13:01:33.718Z,20.65
2019-04-27T13:06:37.775Z,8.40
2019-04-27T13:11:41.218Z,12.00
2019-04-27T13:16:45.715Z,21.23
2019-04-27T13:21:53.344Z,8.58
2019-04-27T13:26:56.797Z,15.43
2019-04-27T13:32:00.094Z,20.43
2019-04-27T13:37:08.682Z,22.67
2019-04-27T13:42:12.461Z,21.55
2019-04-27T13:47:23.449Z,21.70
2019-04-27T13:52:29.987Z,20.12
2019-04-27T13:57:33.532Z,18.55
2019-04-27T14:02:37.669Z,20.30
2019-04-27T14:07:40.973Z,13.78
2019-04-27T14:12:44.363Z,18.12
2019-04-27T14:17:47.736Z,15.20
2019-04-27T14:22:53.457Z,16.12
2019-04-27T14:27:58.429Z,16.00
2019-04-27T14:33:01.954Z,15.30
2019-04-27T14:38:05.472Z,14.03
2019-04-27T14:43:09.534Z,16.80
2019-04-27T14:48:13.029Z,16.50
2019-04-27T14:53:17.582Z,8.30
2019-04-27T14:58:22.914Z,14.18
2019-04-27T15:03:26.945Z,13.75
2019-04-27T15:08:30.538Z,14.40
2019-04-27T15:13:37.821Z,10.78
2019-04-27T15:18:44.766Z,12.78
2019-04-27T15:23:48.630Z,14.30
2019-04-27T15:28:53.896Z,14.28
2019-04-27T15:34:05.510Z,14.03
2019-04-27T15:39:15.505Z,16.90
2019-04-27T15:44:18.965Z,8.75
2019-04-27T15:49:22.886Z,17.80
2019-04-27T15:54:31.906Z,12.00
2019-04-27T15:59:39.291Z,18.30
2019-04-27T16:04:40.055Z,11.95
2019-04-27T16:09:45.730Z,22.32
2019-04-27T16:14:49.582Z,15.95
2019-04-27T16:19:53.018Z,17.25
2019-04-27T16:24:58.032Z,21.12
2019-04-27T16:30:09.597Z,22.73
2019-04-27T16:35:09.670Z,19.07
2019-04-27T16:40:17.740Z,18.97
2019-04-27T16:45:22.883Z,21.25
2019-04-27T16:50:26.753Z,18.40
2019-04-27T16:55:34.264Z,23.80
2019-04-27T17:00:38.788Z,19.73
2019-04-27T17:05:42.265Z,22.45
2019-04-27T17:10:45.601Z,21.35
2019-04-27T17:16:24.598Z,22.10
2019-04-27T17:21:33.346Z,23.27
2019-04-27T17:26:42.347Z,21.20
2019-04-27T17:31:44.394Z,23.42
2019-04-27T17:36:54.409Z,21.00
2019-04-27T17:41:53.457Z,22.95
2019-04-27T17:46:57.032Z,23.70
2019-04-27T17:52:00.358Z,16.15
2019-04-27T17:57:03.729Z,20.75
2019-04-27T18:02:08.853Z,20.35
2019-04-27T18:07:12.617Z,20.90
2019-04-27T18:12:15.979Z,20.92
2019-04-27T18:17:21.101Z,19.25
2019-04-27T18:22:24.442Z,19.20
2019-04-27T18:28:02.763Z,20.17
2019-04-27T18:33:07.968Z,18.07
2019-04-27T18:38:11.659Z,17.70
2019-04-27T18:43:15.779Z,20.00
2019-04-27T18:48:29.385Z,17.90
2019-04-27T18:53:33.059Z,17.90
2019-04-27T18:58:37.223Z,17.07
2019-04-27T19:03:40.539Z,17.62
2019-04-27T19:08:43.858Z,17.52
2019-04-27T19:13:48.845Z,19.98
2019-04-27T19:18:52.491Z,19.50
2019-04-27T19:23:55.878Z,19.50
2019-04-27T19:29:08.616Z,19.30
2019-04-27T19:34:12.098Z,21.10
2019-04-27T19:39:17.972Z,21.02
2019-04-27T19:44:22.335Z,20.52
2019-04-27T19:49:25.735Z,21.42
2019-04-27T19:54:30.219Z,22.42
2019-04-27T19:59:48.983Z,22.45
2019-04-27T20:05:03.187Z,22.15
2019-04-27T20:10:08.743Z,21.70
2019-04-27T20:15:12.626Z,24.15
2019-04-27T20:20:17.152Z,32.33
2019-04-27T20:25:21.273Z,28.38
2019-04-27T20:30:24.996Z,24.57
2019-04-27T20:35:28.386Z,22.60
2019-04-27T20:40:31.871Z,22.25
2019-04-27T20:45:36.207Z,21.52
2019-04-27T20:50:41.180Z,22.25
2019-04-27T20:55:44.759Z,22.55
2019-04-27T21:00:48.546Z,23.42
2019-04-27T21:06:11.301Z,22.42
2019-04-27T21:11:14.793Z,20.37
2019-04-27T21:16:18.438Z,21.33
2019-04-27T21:21:22.102Z,21.55
2019-04-27T21:26:26.313Z,22.77
2019-04-27T21:31:31.511Z,20.48
2019-04-27T21:36:34.910Z,21.80
2019-04-27T21:41:38.688Z,20.45
2019-04-27T21:46:43.820Z,20.68
2019-04-27T21:52:07.774Z,19.60
2019-04-27T21:57:12.815Z,17.87
2019-04-27T22:02:18.666Z,16.93
2019-04-27T22:07:22.360Z,17.37
2019-04-27T22:12:25.734Z,17.10
2019-04-27T22:17:29.176Z,12.53
2019-04-27T22:22:41.396Z,13.55
2019-04-27T22:27:45.736Z,16.60
2019-04-27T22:32:51.460Z,15.23
2019-04-27T22:37:55.010Z,17.12
2019-04-27T22:43:11.781Z,16.57
2019-04-27T22:48:15.497Z,16.97
2019-04-27T22:53:19.179Z,16.70
2019-04-27T22:58:22.552Z,17.95
2019-04-27T23:03:31.257Z,18.30
2019-04-27T23:08:34.739Z,18.48
2019-04-27T23:13:38.063Z,17.80
2019-04-27T23:18:41.914Z,18.23
2019-04-27T23:23:45.328Z,19.32
2019-04-27T23:28:49.256Z,18.70
2019-04-27T23:33:52.909Z,17.95
2019-04-27T23:38:56.255Z,18.50
2019-04-27T23:44:00.796Z,20.02
2019-04-27T23:49:04.257Z,21.05
2019-04-27T23:54:08.405Z,22.80
2019-04-27T23:59:24.223Z,24.15
